createdAt,value
2018-05-21T00:00:19.161Z,0.00
2018-05-21T00:01:19.095Z,0.00
2018-05-21T00:02:19.036Z,0.00
2018-05-21T00:03:18.977Z,0.00
2018-05-21T00:04:18.909Z,0.00
2018-05-21T00:05:18.849Z,0.00
2018-05-21T00:06:18.792Z,0.00
2018-05-21T00:07:18.728Z,0.00
2018-05-21T00:08:18.667Z,0.00
2018-05-21T00:09:18.608Z,0.00
2018-05-21T00:10:18.544Z,0.00
2018-05-21T00:11:18.484Z,0.00
2018-05-21T00:12:18.427Z,0.00
2018-05-21T00:13:18.363Z,0.00
2018-05-21T00:14:18.302Z,0.00
2018-05-21T00:15:18.243Z,0.00
2018-05-21T00:16:18.177Z,0.00
2018-05-21T00:17:18.116Z,0.00
2018-05-21T00:18:18.061Z,0.00
2018-05-21T00:19:17.996Z,0.00
2018-05-21T00:20:17.935Z,0.00
2018-05-21T00:21:17.884Z,0.00
2018-05-21T00:22:17.813Z,0.00
2018-05-21T00:23:17.746Z,0.00
2018-05-21T00:24:17.691Z,0.00
2018-05-21T00:25:17.628Z,0.00
2018-05-21T00:26:17.566Z,0.00
2018-05-21T00:27:17.506Z,0.00
2018-05-21T00:28:17.442Z,0.00
2018-05-21T00:29:17.385Z,0.00
2018-05-21T00:30:17.321Z,0.00
2018-05-21T00:31:17.260Z,0.00
2018-05-21T00:32:17.201Z,0.00
2018-05-21T00:33:17.138Z,0.00
2018-05-21T00:34:17.080Z,0.00
2018-05-21T00:35:17.022Z,0.00
2018-05-21T00:36:16.956Z,0.00
2018-05-21T00:37:16.890Z,0.00
2018-05-21T00:38:16.829Z,0.00
2018-05-21T00:39:16.770Z,0.00
2018-05-21T00:40:16.710Z,0.00
2018-05-21T00:41:16.645Z,0.00
2018-05-21T00:42:16.585Z,0.00
2018-05-21T00:43:16.526Z,0.00
2018-05-21T00:44:16.472Z,0.00
2018-05-21T00:45:16.402Z,0.00
2018-05-21T00:46:16.341Z,0.00
2018-05-21T00:47:16.277Z,0.00
2018-05-21T00:48:16.214Z,0.00
2018-05-21T00:49:16.154Z,0.00
2018-05-21T00:50:16.093Z,0.00
2018-05-21T00:51:16.030Z,0.00
2018-05-21T00:52:15.972Z,0.00
2018-05-21T00:53:15.908Z,0.00
2018-05-21T00:54:15.846Z,0.00
2018-05-21T00:55:15.785Z,0.00
2018-05-21T00:56:15.722Z,0.00
2018-05-21T00:57:15.663Z,0.00
2018-05-21T00:58:15.603Z,0.00
2018-05-21T00:59:15.540Z,0.00
2018-05-21T01:00:15.477Z,0.00
2018-05-21T01:01:15.416Z,0.00
2018-05-21T01:02:15.355Z,0.00
2018-05-21T01:03:15.296Z,0.00
2018-05-21T01:04:15.233Z,0.00
2018-05-21T01:05:15.172Z,0.00
2018-05-21T01:06:15.112Z,0.00
2018-05-21T01:07:15.046Z,0.00
2018-05-21T01:08:14.982Z,0.00
2018-05-21T01:09:14.923Z,0.00
2018-05-21T01:10:23.504Z,0.00
2018-05-21T01:12:16.798Z,0.00
2018-05-21T01:13:16.695Z,0.00
2018-05-21T01:15:02.369Z,0.00
2018-05-21T01:16:02.275Z,0.00
2018-05-21T01:17:56.569Z,0.00
2018-05-21T01:18:56.478Z,0.00
2018-05-21T01:20:50.768Z,0.00
2018-05-21T01:22:00.295Z,0.00
2018-05-21T01:23:44.977Z,0.00
2018-05-21T01:24:44.881Z,0.00
2018-05-21T01:26:39.184Z,0.00
2018-05-21T01:27:39.090Z,0.00
2018-05-21T01:29:33.373Z,0.00
2018-05-21T01:30:33.290Z,0.00
2018-05-21T01:31:33.226Z,0.00
2018-05-21T01:32:33.162Z,0.00
2018-05-21T01:33:33.103Z,0.00
2018-05-21T01:34:33.042Z,0.00
2018-05-21T01:35:32.980Z,0.00
2018-05-21T01:36:32.913Z,0.00
2018-05-21T01:37:32.856Z,0.00
2018-05-21T01:38:32.792Z,0.00
2018-05-21T01:39:32.726Z,0.00
2018-05-21T01:40:32.671Z,0.00
2018-05-21T01:41:32.608Z,0.00
2018-05-21T01:42:32.543Z,0.00
2018-05-21T01:43:32.481Z,0.00
2018-05-21T01:44:32.421Z,0.00
2018-05-21T01:45:32.362Z,0.00
2018-05-21T01:46:32.299Z,0.00
2018-05-21T01:47:32.236Z,0.00
2018-05-21T01:48:32.173Z,0.00
2018-05-21T01:49:32.110Z,0.00
2018-05-21T01:50:32.048Z,0.00
2018-05-21T01:51:31.987Z,0.00
2018-05-21T01:52:31.923Z,0.00
2018-05-21T01:53:31.866Z,0.00
2018-05-21T01:54:31.803Z,0.00
2018-05-21T01:55:31.743Z,0.00
2018-05-21T01:56:31.676Z,0.00
2018-05-21T01:57:31.614Z,0.00
2018-05-21T01:58:31.552Z,0.00
2018-05-21T01:59:31.493Z,0.00
2018-05-21T02:00:31.431Z,0.00
2018-05-21T02:01:31.366Z,0.00
2018-05-21T02:02:31.303Z,0.00
2018-05-21T02:03:31.242Z,0.00
2018-05-21T02:04:31.179Z,0.00
2018-05-21T02:05:31.130Z,0.00
2018-05-21T02:06:31.057Z,0.00
2018-05-21T02:07:30.997Z,0.00
2018-05-21T02:08:30.991Z,0.00
2018-05-21T02:09:30.871Z,0.00
2018-05-21T02:10:30.812Z,0.00
2018-05-21T02:11:30.744Z,0.00
2018-05-21T02:12:30.685Z,0.00
2018-05-21T02:13:30.619Z,0.00
2018-05-21T02:14:30.559Z,0.00
2018-05-21T02:15:30.496Z,0.00
2018-05-21T02:16:30.433Z,0.00
2018-05-21T02:17:30.370Z,0.00
2018-05-21T02:18:30.315Z,0.00
2018-05-21T02:19:30.254Z,0.00
2018-05-21T02:20:30.184Z,0.00
2018-05-21T02:21:30.122Z,0.00
2018-05-21T02:22:30.061Z,0.00
2018-05-21T02:23:29.996Z,0.00
2018-05-21T02:24:29.935Z,0.00
2018-05-21T02:25:29.874Z,0.00
2018-05-21T02:26:29.813Z,0.00
2018-05-21T02:27:29.751Z,0.00
2018-05-21T02:28:29.687Z,0.00
2018-05-21T02:29:29.622Z,0.00
2018-05-21T02:30:29.559Z,0.00
2018-05-21T02:31:29.502Z,0.00
2018-05-21T02:32:29.438Z,0.00
2018-05-21T02:33:29.376Z,0.00
2018-05-21T02:34:29.309Z,0.00
2018-05-21T02:35:29.247Z,0.00
2018-05-21T02:36:30.965Z,0.00
2018-05-21T02:37:29.126Z,0.00
2018-05-21T02:38:29.061Z,0.00
2018-05-21T02:39:30.976Z,0.00
2018-05-21T02:40:28.940Z,0.00
2018-05-21T02:41:28.873Z,0.00
2018-05-21T02:42:28.814Z,0.00
2018-05-21T02:43:28.754Z,0.00
2018-05-21T02:44:28.686Z,0.00
2018-05-21T02:45:28.625Z,0.00
2018-05-21T02:46:28.565Z,0.00
2018-05-21T02:47:28.499Z,0.00
2018-05-21T02:48:28.436Z,0.00
2018-05-21T02:49:28.377Z,0.00
2018-05-21T02:50:28.315Z,0.00
2018-05-21T02:51:28.253Z,0.00
2018-05-21T02:52:28.189Z,0.00
2018-05-21T02:53:28.127Z,5.63
2018-05-21T02:54:28.066Z,5.63
2018-05-21T02:55:28.004Z,5.63
2018-05-21T02:56:27.938Z,5.63
2018-05-21T02:57:27.877Z,5.63
2018-05-21T02:58:29.474Z,5.63
2018-05-21T02:59:29.472Z,5.63
2018-05-21T03:00:27.688Z,5.63
2018-05-21T03:01:27.624Z,5.63
2018-05-21T03:02:27.566Z,11.25
2018-05-21T03:03:27.500Z,11.25
2018-05-21T03:04:27.444Z,11.25
2018-05-21T03:05:27.380Z,11.25
2018-05-21T03:06:27.311Z,11.25
2018-05-21T03:07:27.249Z,16.88
2018-05-21T03:08:27.187Z,16.88
2018-05-21T03:09:27.134Z,16.88
2018-05-21T03:10:27.062Z,16.88
2018-05-21T03:11:27.000Z,22.50
2018-05-21T03:12:26.935Z,22.50
2018-05-21T03:13:26.875Z,22.50
2018-05-21T03:14:26.813Z,22.50
2018-05-21T03:15:26.750Z,28.13
2018-05-21T03:16:26.688Z,28.13
2018-05-21T03:17:26.626Z,28.13
2018-05-21T03:18:28.476Z,28.13
2018-05-21T03:19:26.504Z,33.75
2018-05-21T03:20:26.441Z,33.75
2018-05-21T03:21:27.977Z,33.75
2018-05-21T03:22:26.308Z,39.38
2018-05-21T03:23:27.975Z,39.38
2018-05-21T03:24:26.184Z,39.38
2018-05-21T03:25:26.124Z,45.00
2018-05-21T03:26:26.060Z,45.00
2018-05-21T03:27:25.999Z,45.00
2018-05-21T03:28:25.936Z,50.63
2018-05-21T03:29:25.872Z,50.63
2018-05-21T03:30:25.809Z,50.63
2018-05-21T03:31:25.752Z,56.25
2018-05-21T03:32:25.684Z,56.25
2018-05-21T03:33:25.621Z,61.88
2018-05-21T03:34:25.565Z,61.88
2018-05-21T03:35:25.497Z,61.88
2018-05-21T03:36:25.434Z,67.50
2018-05-21T03:37:26.984Z,67.50
2018-05-21T03:38:25.309Z,73.13
2018-05-21T03:39:25.247Z,73.13
2018-05-21T03:40:25.185Z,73.13
2018-05-21T03:41:25.120Z,78.75
2018-05-21T03:42:25.059Z,78.75
2018-05-21T03:43:24.996Z,84.38
2018-05-21T03:44:24.931Z,84.38
2018-05-21T03:45:24.871Z,84.38
2018-05-21T03:46:24.812Z,90.00
2018-05-21T03:47:24.743Z,90.00
2018-05-21T03:48:24.683Z,90.00
2018-05-21T03:49:24.618Z,95.63
2018-05-21T03:50:24.563Z,95.63
2018-05-21T03:51:24.493Z,101.25
2018-05-21T03:52:24.431Z,101.25
2018-05-21T03:53:24.371Z,101.25
2018-05-21T03:54:24.305Z,106.88
2018-05-21T03:55:24.244Z,106.88
2018-05-21T03:56:24.177Z,106.88
2018-05-21T03:57:24.120Z,112.50
2018-05-21T03:58:24.057Z,112.50
2018-05-21T03:59:25.489Z,112.50
2018-05-21T04:00:23.934Z,118.13
2018-05-21T04:01:23.866Z,118.13
2018-05-21T04:02:23.804Z,123.75
2018-05-21T04:03:23.743Z,123.75
2018-05-21T04:04:23.711Z,123.75
2018-05-21T04:05:23.618Z,129.38
2018-05-21T04:06:23.557Z,129.38
2018-05-21T04:07:24.987Z,135.00
2018-05-21T04:08:23.429Z,135.00
2018-05-21T04:09:23.368Z,135.00
2018-05-21T04:10:23.307Z,140.63
2018-05-21T04:11:23.243Z,140.63
2018-05-21T04:12:23.180Z,140.63
2018-05-21T04:13:23.119Z,146.25
2018-05-21T04:14:23.059Z,146.25
2018-05-21T04:15:22.994Z,146.25
2018-05-21T04:16:22.927Z,151.88
2018-05-21T04:17:22.868Z,151.88
2018-05-21T04:18:22.807Z,151.88
2018-05-21T04:19:22.743Z,157.50
2018-05-21T04:20:22.682Z,157.50
2018-05-21T04:21:22.617Z,157.50
2018-05-21T04:22:22.554Z,163.13
2018-05-21T04:23:22.495Z,163.13
2018-05-21T04:24:22.435Z,163.13
2018-05-21T04:25:22.368Z,163.13
2018-05-21T04:26:22.306Z,163.13
2018-05-21T04:27:22.245Z,168.75
2018-05-21T04:28:22.183Z,168.75
2018-05-21T04:29:22.123Z,168.75
2018-05-21T04:30:22.060Z,174.38
2018-05-21T04:31:22.009Z,174.38
2018-05-21T04:32:21.937Z,174.38
2018-05-21T04:33:21.871Z,180.00
2018-05-21T04:34:21.807Z,180.00
2018-05-21T04:35:21.748Z,180.00
2018-05-21T04:36:21.762Z,185.63
2018-05-21T04:37:21.619Z,185.63
2018-05-21T04:38:21.557Z,191.25
2018-05-21T04:39:21.497Z,191.25
2018-05-21T04:40:21.435Z,191.25
2018-05-21T04:41:21.370Z,196.88
2018-05-21T04:42:21.311Z,196.88
2018-05-21T04:43:21.251Z,196.88
2018-05-21T04:44:21.185Z,202.50
2018-05-21T04:45:21.123Z,202.50
2018-05-21T04:46:21.062Z,202.50
2018-05-21T04:47:20.997Z,208.13
2018-05-21T04:48:20.935Z,208.13
2018-05-21T04:49:20.880Z,208.13
2018-05-21T04:50:20.815Z,213.75
2018-05-21T04:51:20.752Z,213.75
2018-05-21T04:52:20.691Z,219.38
2018-05-21T04:53:20.628Z,219.38
2018-05-21T04:54:20.563Z,219.38
2018-05-21T04:55:20.504Z,225.00
2018-05-21T04:56:20.439Z,230.63
2018-05-21T04:57:20.385Z,230.63
2018-05-21T04:58:20.315Z,236.25
2018-05-21T04:59:20.253Z,258.75
2018-05-21T05:00:20.192Z,298.13
2018-05-21T05:01:20.130Z,354.38
2018-05-21T05:02:20.067Z,371.25
2018-05-21T05:03:20.011Z,365.63
2018-05-21T05:04:19.944Z,360.00
2018-05-21T05:05:19.877Z,371.25
2018-05-21T05:06:19.817Z,388.13
2018-05-21T05:07:19.756Z,371.25
2018-05-21T05:08:19.691Z,365.63
2018-05-21T05:09:21.504Z,433.13
2018-05-21T05:10:19.574Z,517.50
2018-05-21T05:11:19.508Z,568.13
2018-05-21T05:12:19.448Z,562.50
2018-05-21T05:13:19.385Z,556.88
2018-05-21T05:14:19.326Z,568.13
2018-05-21T05:15:19.278Z,551.25
2018-05-21T05:16:19.208Z,511.88
2018-05-21T05:17:19.147Z,421.88
2018-05-21T05:18:19.085Z,343.13
2018-05-21T05:19:19.025Z,292.50
2018-05-21T05:20:18.969Z,270.00
2018-05-21T05:21:20.518Z,270.00
2018-05-21T05:22:18.844Z,270.00
2018-05-21T05:23:18.794Z,270.00
2018-05-21T05:24:18.724Z,270.00
2018-05-21T05:25:18.662Z,270.00
2018-05-21T05:26:18.598Z,275.63
2018-05-21T05:27:18.544Z,275.63
2018-05-21T05:28:18.479Z,275.63
2018-05-21T05:29:18.419Z,275.63
2018-05-21T05:30:18.359Z,275.63
2018-05-21T05:31:18.300Z,275.63
2018-05-21T05:32:18.241Z,281.25
2018-05-21T05:33:18.183Z,281.25
2018-05-21T05:34:18.118Z,281.25
2018-05-21T05:35:18.058Z,281.25
2018-05-21T05:36:17.996Z,286.88
2018-05-21T05:37:17.933Z,286.88
2018-05-21T05:38:17.875Z,286.88
2018-05-21T05:39:17.811Z,286.88
2018-05-21T05:40:17.751Z,292.50
2018-05-21T05:41:17.694Z,292.50
2018-05-21T05:42:17.633Z,292.50
2018-05-21T05:43:17.569Z,292.50
2018-05-21T05:44:17.509Z,292.50
2018-05-21T05:45:17.449Z,298.13
2018-05-21T05:46:17.390Z,298.13
2018-05-21T05:47:17.328Z,298.13
2018-05-21T05:48:17.268Z,298.13
2018-05-21T05:49:17.203Z,298.13
2018-05-21T05:50:17.144Z,303.75
2018-05-21T05:51:17.086Z,303.75
2018-05-21T05:52:17.023Z,303.75
2018-05-21T05:53:16.963Z,303.75
2018-05-21T05:54:16.906Z,303.75
2018-05-21T05:55:16.845Z,309.38
2018-05-21T05:56:16.780Z,309.38
2018-05-21T05:57:16.717Z,309.38
2018-05-21T05:58:16.657Z,309.38
2018-05-21T05:59:16.599Z,309.38
2018-05-21T06:00:16.539Z,309.38
2018-05-21T06:01:16.474Z,309.38
2018-05-21T06:02:16.414Z,309.38
2018-05-21T06:03:16.364Z,315.00
2018-05-21T06:04:16.292Z,309.38
2018-05-21T06:05:16.234Z,309.38
2018-05-21T06:06:16.173Z,315.00
2018-05-21T06:07:16.114Z,315.00
2018-05-21T06:08:16.051Z,315.00
2018-05-21T06:09:15.993Z,315.00
2018-05-21T06:10:15.928Z,315.00
2018-05-21T06:11:15.866Z,320.63
2018-05-21T06:12:15.807Z,320.63
2018-05-21T06:13:15.748Z,320.63
2018-05-21T06:14:15.688Z,320.63
2018-05-21T06:15:15.625Z,320.63
2018-05-21T06:16:15.564Z,320.63
2018-05-21T06:17:15.507Z,326.25
2018-05-21T06:18:15.446Z,326.25
2018-05-21T06:19:15.387Z,326.25
2018-05-21T06:20:15.323Z,326.25
2018-05-21T06:21:15.262Z,326.25
2018-05-21T06:22:15.203Z,326.25
2018-05-21T06:23:15.141Z,331.88
2018-05-21T06:24:15.080Z,331.88
2018-05-21T06:25:15.024Z,331.88
2018-05-21T06:26:14.958Z,331.88
2018-05-21T06:27:14.904Z,331.88
2018-05-21T06:28:14.838Z,331.88
2018-05-21T06:29:14.899Z,331.88
2018-05-21T06:30:14.721Z,331.88
2018-05-21T06:31:14.660Z,337.50
2018-05-21T06:32:14.597Z,343.13
2018-05-21T06:33:14.541Z,337.50
2018-05-21T06:34:14.585Z,337.50
2018-05-21T06:35:14.420Z,337.50
2018-05-21T06:36:14.368Z,337.50
2018-05-21T06:37:14.299Z,337.50
2018-05-21T06:38:14.244Z,343.13
2018-05-21T06:39:14.179Z,343.13
2018-05-21T06:40:14.119Z,343.13
2018-05-21T06:41:14.057Z,343.13
2018-05-21T06:42:13.993Z,343.13
2018-05-21T06:43:21.581Z,343.13
2018-05-21T06:45:08.843Z,348.75
2018-05-21T06:46:08.144Z,348.75
2018-05-21T06:48:11.151Z,348.75
2018-05-21T06:49:02.444Z,348.75
2018-05-21T06:51:05.366Z,348.75
2018-05-21T06:51:56.648Z,354.38
2018-05-21T06:53:50.963Z,348.75
2018-05-21T06:54:50.852Z,354.38
2018-05-21T06:56:45.170Z,354.38
2018-05-21T06:57:45.080Z,354.38
2018-05-21T06:59:39.379Z,354.38
2018-05-21T07:00:39.282Z,354.38
2018-05-21T07:02:33.587Z,354.38
2018-05-21T07:03:33.492Z,354.38
2018-05-21T07:05:27.788Z,354.38
2018-05-21T07:06:27.700Z,354.38
2018-05-21T07:08:22.004Z,354.38
2018-05-21T07:09:21.918Z,354.38
2018-05-21T07:11:16.213Z,354.38
2018-05-21T07:12:16.132Z,354.38
2018-05-21T07:14:10.425Z,354.38
2018-05-21T07:15:10.330Z,354.38
2018-05-21T07:17:04.628Z,354.38
2018-05-21T07:18:04.538Z,354.38
2018-05-21T07:19:58.857Z,354.38
2018-05-21T07:20:58.749Z,354.38
2018-05-21T07:22:52.056Z,354.38
2018-05-21T07:23:51.968Z,354.38
2018-05-21T07:25:45.277Z,354.38
2018-05-21T07:26:45.187Z,354.38
2018-05-21T07:28:38.503Z,354.38
2018-05-21T07:29:38.412Z,354.38
2018-05-21T07:31:32.395Z,354.38
2018-05-21T07:32:31.631Z,354.38
2018-05-21T07:34:25.930Z,354.38
2018-05-21T07:35:25.842Z,354.38
2018-05-21T07:37:20.144Z,354.38
2018-05-21T07:38:20.050Z,354.38
2018-05-21T07:40:13.366Z,354.38
2018-05-21T07:41:13.273Z,354.38
2018-05-21T07:42:13.216Z,354.38
2018-05-21T07:43:13.159Z,354.38
2018-05-21T07:44:13.095Z,354.38
2018-05-21T07:45:13.035Z,354.38
2018-05-21T07:46:12.978Z,354.38
2018-05-21T07:47:12.920Z,354.38
2018-05-21T07:48:12.865Z,354.38
2018-05-21T07:49:12.809Z,354.38
2018-05-21T07:50:12.748Z,354.38
2018-05-21T07:51:12.747Z,354.38
2018-05-21T07:52:12.625Z,354.38
2018-05-21T07:53:12.570Z,354.38
2018-05-21T07:54:12.510Z,354.38
2018-05-21T07:55:12.453Z,354.38
2018-05-21T07:56:12.385Z,354.38
2018-05-21T07:57:12.332Z,360.00
2018-05-21T07:58:12.366Z,354.38
2018-05-21T07:59:12.213Z,354.38
2018-05-21T08:00:12.160Z,354.38
2018-05-21T08:01:12.101Z,354.38
2018-05-21T08:02:12.042Z,354.38
2018-05-21T08:03:11.987Z,354.38
2018-05-21T08:04:11.928Z,354.38
2018-05-21T08:05:11.951Z,354.38
2018-05-21T08:06:11.805Z,354.38
2018-05-21T08:07:11.749Z,354.38
2018-05-21T08:08:11.692Z,354.38
2018-05-21T08:09:11.630Z,354.38
2018-05-21T08:10:11.574Z,354.38
2018-05-21T08:11:11.516Z,354.38
2018-05-21T08:12:11.459Z,354.38
2018-05-21T08:13:11.398Z,360.00
2018-05-21T08:14:11.347Z,360.00
2018-05-21T08:15:11.286Z,360.00
2018-05-21T08:16:11.223Z,360.00
2018-05-21T08:17:11.167Z,360.00
2018-05-21T08:18:11.110Z,360.00
2018-05-21T08:19:11.050Z,354.38
2018-05-21T08:20:10.992Z,354.38
2018-05-21T08:21:10.937Z,354.38
2018-05-21T08:22:11.016Z,360.00
2018-05-21T08:23:10.817Z,360.00
2018-05-21T08:24:10.755Z,360.00
2018-05-21T08:25:10.698Z,360.00
2018-05-21T08:26:10.645Z,360.00
2018-05-21T08:27:10.588Z,365.63
2018-05-21T08:28:10.526Z,365.63
2018-05-21T08:29:10.471Z,365.63
2018-05-21T08:30:10.411Z,365.63
2018-05-21T08:31:10.357Z,365.63
2018-05-21T08:32:10.294Z,365.63
2018-05-21T08:33:10.239Z,365.63
2018-05-21T08:34:10.181Z,360.00
2018-05-21T08:35:10.201Z,360.00
2018-05-21T08:36:10.064Z,360.00
2018-05-21T08:37:10.005Z,365.63
2018-05-21T08:38:09.947Z,365.63
2018-05-21T08:39:09.889Z,365.63
2018-05-21T08:40:09.831Z,365.63
2018-05-21T08:41:09.773Z,365.63
2018-05-21T08:42:09.716Z,365.63
2018-05-21T08:43:09.654Z,365.63
2018-05-21T08:44:09.596Z,365.63
2018-05-21T08:45:09.540Z,365.63
2018-05-21T08:46:09.482Z,365.63
2018-05-21T08:47:09.425Z,365.63
2018-05-21T08:48:09.380Z,365.63
2018-05-21T08:49:09.309Z,365.63
2018-05-21T08:50:09.256Z,365.63
2018-05-21T08:51:09.189Z,365.63
2018-05-21T08:52:09.134Z,365.63
2018-05-21T08:53:09.081Z,365.63
2018-05-21T08:54:09.020Z,365.63
2018-05-21T08:55:08.979Z,365.63
2018-05-21T08:56:08.901Z,365.63
2018-05-21T08:57:08.845Z,365.63
2018-05-21T08:58:08.788Z,365.63
2018-05-21T08:59:08.782Z,365.63
2018-05-21T09:00:08.809Z,365.63
2018-05-21T09:01:08.613Z,360.00
2018-05-21T09:02:08.560Z,365.63
2018-05-21T09:03:08.496Z,365.63
2018-05-21T09:04:08.442Z,365.63
2018-05-21T09:05:08.381Z,365.63
2018-05-21T09:06:08.323Z,371.25
2018-05-21T09:07:08.267Z,365.63
2018-05-21T09:08:08.200Z,371.25
2018-05-21T09:09:08.184Z,365.63
2018-05-21T09:10:08.099Z,365.63
2018-05-21T09:11:08.038Z,365.63
2018-05-21T09:12:07.982Z,365.63
2018-05-21T09:13:07.917Z,371.25
2018-05-21T09:14:07.858Z,371.25
2018-05-21T09:15:07.822Z,371.25
2018-05-21T09:16:07.745Z,371.25
2018-05-21T09:17:07.692Z,371.25
2018-05-21T09:18:07.628Z,371.25
2018-05-21T09:19:07.568Z,371.25
2018-05-21T09:20:07.515Z,371.25
2018-05-21T09:21:07.453Z,371.25
2018-05-21T09:22:07.393Z,371.25
2018-05-21T09:23:07.337Z,371.25
2018-05-21T09:24:07.281Z,371.25
2018-05-21T09:25:07.225Z,382.50
2018-05-21T09:26:07.207Z,376.88
2018-05-21T09:27:07.109Z,376.88
2018-05-21T09:28:07.050Z,376.88
2018-05-21T09:29:06.988Z,376.88
2018-05-21T09:30:06.933Z,376.88
2018-05-21T09:31:06.878Z,376.88
2018-05-21T09:32:06.816Z,388.13
2018-05-21T09:33:06.760Z,393.75
2018-05-21T09:34:06.702Z,382.50
2018-05-21T09:35:06.646Z,388.13
2018-05-21T09:36:06.595Z,399.38
2018-05-21T09:37:06.538Z,393.75
2018-05-21T09:38:06.476Z,393.75
2018-05-21T09:39:06.414Z,388.13
2018-05-21T09:40:06.356Z,388.13
2018-05-21T09:41:06.298Z,399.38
2018-05-21T09:42:06.265Z,393.75
2018-05-21T09:43:06.184Z,388.13
2018-05-21T09:44:06.128Z,371.25
2018-05-21T09:45:06.072Z,416.25
2018-05-21T09:46:06.014Z,421.88
2018-05-21T09:47:05.967Z,416.25
2018-05-21T09:48:05.958Z,399.38
2018-05-21T09:49:05.840Z,416.25
2018-05-21T09:50:05.784Z,416.25
2018-05-21T09:51:05.723Z,410.63
2018-05-21T09:52:05.661Z,405.00
2018-05-21T09:53:05.608Z,405.00
2018-05-21T09:54:05.549Z,405.00
2018-05-21T09:55:05.493Z,410.63
2018-05-21T09:56:05.436Z,466.88
2018-05-21T09:57:05.379Z,466.88
2018-05-21T09:58:05.321Z,466.88
2018-05-21T09:59:05.274Z,472.50
2018-05-21T10:00:05.199Z,500.63
2018-05-21T10:01:05.173Z,483.75
2018-05-21T10:02:05.090Z,472.50
2018-05-21T10:03:05.034Z,444.38
2018-05-21T10:04:04.973Z,421.88
2018-05-21T10:05:04.920Z,416.25
2018-05-21T10:06:04.880Z,416.25
2018-05-21T10:07:04.803Z,416.25
2018-05-21T10:08:04.771Z,416.25
2018-05-21T10:09:04.689Z,416.25
2018-05-21T10:10:04.633Z,421.88
2018-05-21T10:11:04.575Z,399.38
2018-05-21T10:12:04.616Z,421.88
2018-05-21T10:13:04.463Z,421.88
2018-05-21T10:14:04.401Z,421.88
2018-05-21T10:15:04.342Z,427.50
2018-05-21T10:16:04.287Z,433.13
2018-05-21T10:17:04.230Z,450.00
2018-05-21T10:18:04.172Z,444.38
2018-05-21T10:19:04.111Z,444.38
2018-05-21T10:20:04.062Z,444.38
2018-05-21T10:21:03.999Z,444.38
2018-05-21T10:22:03.943Z,444.38
2018-05-21T10:23:03.885Z,444.38
2018-05-21T10:24:03.827Z,438.75
2018-05-21T10:25:03.770Z,438.75
2018-05-21T10:26:03.772Z,444.38
2018-05-21T10:27:03.659Z,444.38
2018-05-21T10:28:03.597Z,444.38
2018-05-21T10:29:03.543Z,455.63
2018-05-21T10:30:03.485Z,450.00
2018-05-21T10:31:03.429Z,444.38
2018-05-21T10:32:03.368Z,450.00
2018-05-21T10:33:03.319Z,450.00
2018-05-21T10:34:03.279Z,455.63
2018-05-21T10:35:03.198Z,461.25
2018-05-21T10:36:03.138Z,466.88
2018-05-21T10:37:03.102Z,466.88
2018-05-21T10:38:03.019Z,478.13
2018-05-21T10:39:02.970Z,478.13
2018-05-21T10:40:02.913Z,472.50
2018-05-21T10:41:02.854Z,466.88
2018-05-21T10:42:02.798Z,472.50
2018-05-21T10:43:02.742Z,466.88
2018-05-21T10:44:02.683Z,466.88
2018-05-21T10:45:02.628Z,472.50
2018-05-21T10:46:02.565Z,489.38
2018-05-21T10:47:02.519Z,478.13
2018-05-21T10:48:02.467Z,483.75
2018-05-21T10:49:02.451Z,511.88
2018-05-21T10:50:03.010Z,528.75
2018-05-21T10:51:02.352Z,540.00
2018-05-21T10:52:02.991Z,551.25
2018-05-21T10:53:02.186Z,540.00
2018-05-21T10:54:02.205Z,528.75
2018-05-21T10:55:02.081Z,511.88
2018-05-21T10:56:02.003Z,511.88
2018-05-21T10:57:02.081Z,528.75
2018-05-21T10:58:01.928Z,523.13
2018-05-21T10:59:01.864Z,517.50
2018-05-21T11:00:01.796Z,517.50
2018-05-21T11:01:01.738Z,545.63
2018-05-21T11:02:01.666Z,528.75
2018-05-21T11:03:01.611Z,523.13
2018-05-21T11:04:01.578Z,528.75
2018-05-21T11:05:01.500Z,528.75
2018-05-21T11:06:01.453Z,534.38
2018-05-21T11:07:01.380Z,540.00
2018-05-21T11:08:01.323Z,540.00
2018-05-21T11:09:01.285Z,545.63
2018-05-21T11:10:01.214Z,556.88
2018-05-21T11:11:01.161Z,562.50
2018-05-21T11:12:01.110Z,573.75
2018-05-21T11:13:01.068Z,585.00
2018-05-21T11:14:00.999Z,590.63
2018-05-21T11:15:00.955Z,607.50
2018-05-21T11:16:00.898Z,635.63
2018-05-21T11:17:00.840Z,866.25
2018-05-21T11:18:00.821Z,2733.75
2018-05-21T11:19:00.738Z,4252.50
2018-05-21T11:20:00.685Z,4381.88
2018-05-21T11:21:00.630Z,4500.00
2018-05-21T11:22:00.582Z,4606.88
2018-05-21T11:23:01.503Z,4702.50
2018-05-21T11:24:00.525Z,4725.00
2018-05-21T11:25:00.425Z,4725.00
2018-05-21T11:26:00.384Z,4618.13
2018-05-21T11:27:00.325Z,703.13
2018-05-21T11:28:00.301Z,742.50
2018-05-21T11:29:00.236Z,4342.50
2018-05-21T11:30:00.179Z,4336.88
2018-05-21T11:31:00.128Z,4190.63
2018-05-21T11:32:00.167Z,4061.25
2018-05-21T11:33:00.033Z,4128.75
2018-05-21T11:33:59.986Z,4241.25
2018-05-21T11:34:59.930Z,4095.00
2018-05-21T11:35:59.889Z,4567.50
2018-05-21T11:36:59.838Z,4612.50
2018-05-21T11:37:59.795Z,4933.13
2018-05-21T11:38:59.757Z,5107.50
2018-05-21T11:39:59.697Z,5158.13
2018-05-21T11:40:59.652Z,5096.25
2018-05-21T11:41:59.603Z,4860.00
2018-05-21T11:42:59.559Z,4685.63
2018-05-21T11:43:59.546Z,4359.38
2018-05-21T11:44:59.466Z,4151.25
2018-05-21T11:45:59.438Z,3735.00
2018-05-21T11:46:59.375Z,3521.25
2018-05-21T11:47:59.343Z,2885.63
2018-05-21T11:48:59.288Z,3341.25
2018-05-21T11:49:59.254Z,3290.63
2018-05-21T11:50:59.199Z,3695.63
2018-05-21T11:51:59.166Z,4021.88
2018-05-21T11:52:59.108Z,1940.63
2018-05-21T11:53:59.082Z,1282.50
2018-05-21T11:54:59.027Z,3189.38
2018-05-21T11:55:58.996Z,3690.00
2018-05-21T11:56:58.932Z,3723.75
2018-05-21T11:57:58.885Z,4336.88
2018-05-21T11:59:01.509Z,4539.38
2018-05-21T11:59:58.798Z,4140.00
2018-05-21T12:00:58.758Z,1096.88
2018-05-21T12:01:58.757Z,1051.88
2018-05-21T12:02:58.668Z,2975.63
2018-05-21T12:03:58.624Z,3791.25
2018-05-21T12:04:58.579Z,3301.88
2018-05-21T12:05:58.531Z,4471.88
2018-05-21T12:06:58.488Z,4280.63
2018-05-21T12:07:58.450Z,4106.25
2018-05-21T12:08:58.407Z,3971.25
2018-05-21T12:10:06.489Z,3943.13
2018-05-21T12:11:52.927Z,4258.13
2018-05-21T12:12:52.627Z,4336.88
2018-05-21T12:14:46.555Z,4623.75
2018-05-21T12:15:45.885Z,4770.00
2018-05-21T12:17:40.821Z,4820.63
2018-05-21T12:18:40.637Z,4848.75
2018-05-21T12:20:35.075Z,4668.75
2018-05-21T12:21:34.898Z,4629.38
2018-05-21T12:23:29.227Z,4522.50
2018-05-21T12:24:29.157Z,4483.13
2018-05-21T12:26:23.517Z,4426.88
2018-05-21T12:27:23.446Z,4601.25
2018-05-21T12:29:16.801Z,4511.25
2018-05-21T12:30:16.721Z,4511.25
2018-05-21T12:31:16.682Z,4370.63
2018-05-21T12:32:16.648Z,4719.38
2018-05-21T12:33:16.600Z,4916.25
2018-05-21T12:34:16.559Z,4995.00
2018-05-21T12:35:16.517Z,5056.88
2018-05-21T12:36:16.479Z,4758.75
2018-05-21T12:37:16.435Z,5400.00
2018-05-21T12:38:16.404Z,5529.38
2018-05-21T12:39:16.354Z,5715.00
2018-05-21T12:40:16.318Z,5731.88
2018-05-21T12:41:16.272Z,3481.88
2018-05-21T12:42:16.234Z,1260.00
2018-05-21T12:43:16.192Z,4916.25
2018-05-21T12:44:16.158Z,5169.38
2018-05-21T12:45:16.110Z,5028.75
2018-05-21T12:46:16.071Z,3825.00
2018-05-21T12:47:16.027Z,3751.88
2018-05-21T12:48:15.989Z,4601.25
2018-05-21T12:49:15.944Z,4888.13
2018-05-21T12:50:15.904Z,5467.50
2018-05-21T12:51:15.863Z,5394.38
2018-05-21T12:52:15.822Z,4190.63
2018-05-21T12:53:15.783Z,2216.25
2018-05-21T12:54:15.744Z,2373.75
2018-05-21T12:55:15.695Z,2829.38
2018-05-21T12:56:15.655Z,4921.88
2018-05-21T12:57:15.610Z,5175.00
2018-05-21T12:58:15.568Z,5366.25
2018-05-21T12:59:15.528Z,5383.13
2018-05-21T13:00:15.487Z,5310.00
2018-05-21T13:01:15.441Z,5169.38
2018-05-21T13:02:15.400Z,4905.00
2018-05-21T13:03:15.360Z,4876.88
2018-05-21T13:04:15.319Z,4438.13
2018-05-21T13:05:15.428Z,4578.75
2018-05-21T13:06:15.237Z,3999.38
2018-05-21T13:07:15.195Z,3673.13